createdAt,value
2019-05-30T00:01:23.683Z,8.23
2019-05-30T00:03:53.980Z,8.95
2019-05-30T00:08:54.313Z,7.85
2019-05-30T00:11:24.379Z,8.20
2019-05-30T00:13:54.584Z,8.50
2019-05-30T00:16:24.489Z,8.13
2019-05-30T00:18:54.635Z,8.13
2019-05-30T00:21:25.496Z,7.90
2019-05-30T00:23:55.764Z,7.90
2019-05-30T00:26:25.443Z,8.03
2019-05-30T00:28:56.181Z,7.75
2019-05-30T00:31:26.001Z,7.75
2019-05-30T00:33:55.734Z,7.12
2019-05-30T00:36:25.384Z,7.45
2019-05-30T00:38:55.651Z,7.33
2019-05-30T00:41:26.378Z,7.53
2019-05-30T00:43:56.054Z,7.53
2019-05-30T00:46:25.783Z,7.53
2019-05-30T00:48:56.266Z,7.50
2019-05-30T00:51:30.667Z,7.85
2019-05-30T00:54:02.892Z,7.08
2019-05-30T00:56:32.629Z,7.08
2019-05-30T00:59:02.745Z,7.55
2019-05-30T01:01:32.439Z,6.70
2019-05-30T01:04:02.899Z,7.00
2019-05-30T01:06:32.848Z,7.37
2019-05-30T01:09:03.153Z,5.30
2019-05-30T01:11:32.953Z,6.10
2019-05-30T01:14:03.749Z,6.95
2019-05-30T01:16:34.490Z,6.83
2019-05-30T01:19:05.283Z,6.60
2019-05-30T01:21:35.211Z,6.95
2019-05-30T01:24:05.761Z,7.55
2019-05-30T01:26:35.711Z,7.58
2019-05-30T01:29:05.581Z,7.67
2019-05-30T01:31:35.545Z,7.70
2019-05-30T01:34:05.929Z,6.97
2019-05-30T01:36:35.665Z,7.42
2019-05-30T01:39:07.987Z,8.10
2019-05-30T01:41:38.080Z,7.30
2019-05-30T01:44:08.341Z,6.67
2019-05-30T01:46:39.325Z,6.47
2019-05-30T01:49:11.945Z,6.55
2019-05-30T01:51:41.611Z,7.22
2019-05-30T01:54:11.731Z,5.72
2019-05-30T01:56:41.315Z,5.53
2019-05-30T01:59:10.957Z,5.75
2019-05-30T02:01:40.788Z,6.08
2019-05-30T02:04:10.421Z,7.00
2019-05-30T02:06:40.115Z,7.33
2019-05-30T02:09:10.880Z,6.55
2019-05-30T02:11:41.044Z,7.85
2019-05-30T02:14:10.680Z,7.65
2019-05-30T02:16:40.284Z,6.55
2019-05-30T02:19:10.571Z,6.85
2019-05-30T02:21:41.684Z,6.28
2019-05-30T02:24:12.207Z,7.80
2019-05-30T02:26:43.060Z,5.92
2019-05-30T02:29:12.807Z,7.50
2019-05-30T02:31:42.308Z,7.50
2019-05-30T02:34:12.402Z,7.62
2019-05-30T02:36:42.496Z,5.85
2019-05-30T02:39:12.393Z,7.83
2019-05-30T02:41:42.260Z,7.60
2019-05-30T02:44:12.392Z,7.62
2019-05-30T02:46:42.550Z,6.78
2019-05-30T02:49:13.836Z,6.45
2019-05-30T02:51:43.529Z,6.80
2019-05-30T02:54:13.426Z,6.83
2019-05-30T02:56:43.353Z,6.92
2019-05-30T02:59:13.692Z,7.28
2019-05-30T03:01:59.888Z,7.35
2019-05-30T03:04:15.109Z,7.33
2019-05-30T03:06:44.817Z,6.83
2019-05-30T03:09:14.483Z,6.65
2019-05-30T03:11:44.228Z,7.05
2019-05-30T03:14:19.043Z,6.65
2019-05-30T03:16:45.241Z,7.45
2019-05-30T03:19:14.917Z,6.92
2019-05-30T03:21:44.595Z,7.40
2019-05-30T03:24:14.465Z,7.90
2019-05-30T03:26:44.375Z,8.33
2019-05-30T03:29:14.461Z,7.53
2019-05-30T03:31:46.874Z,7.53
2019-05-30T03:34:26.320Z,7.72
2019-05-30T03:36:47.775Z,7.17
2019-05-30T03:39:17.624Z,7.92
2019-05-30T03:41:47.240Z,7.58
2019-05-30T03:44:16.902Z,7.92
2019-05-30T03:46:49.609Z,7.72
2019-05-30T03:49:22.259Z,7.87
2019-05-30T03:51:53.457Z,7.83
2019-05-30T03:54:25.183Z,5.95
2019-05-30T03:56:57.896Z,7.75
2019-05-30T03:59:30.541Z,8.28
2019-05-30T04:02:03.291Z,7.92
2019-05-30T04:04:35.946Z,7.97
2019-05-30T04:07:09.132Z,7.53
2019-05-30T04:09:41.317Z,7.72
2019-05-30T04:12:16.032Z,7.78
2019-05-30T04:14:48.382Z,7.62
2019-05-30T04:17:19.799Z,7.22
2019-05-30T04:19:49.379Z,6.92
2019-05-30T04:22:19.599Z,6.78
2019-05-30T04:24:49.824Z,7.28
2019-05-30T04:27:19.467Z,6.90
2019-05-30T04:29:49.172Z,7.10
2019-05-30T04:32:18.826Z,7.45
2019-05-30T04:34:48.761Z,7.03
2019-05-30T04:37:19.054Z,7.58
2019-05-30T04:39:50.477Z,6.97
2019-05-30T04:42:20.792Z,7.58
2019-05-30T04:44:50.588Z,7.53
2019-05-30T04:47:20.818Z,7.50
2019-05-30T04:49:56.478Z,7.08
2019-05-30T04:52:26.267Z,7.03
2019-05-30T04:54:58.953Z,7.50
2019-05-30T04:57:32.996Z,7.80
2019-05-30T05:00:07.141Z,8.25
2019-05-30T05:02:36.853Z,7.90
2019-05-30T05:05:08.402Z,7.35
2019-05-30T05:07:38.125Z,8.20
2019-05-30T05:10:08.242Z,8.35
2019-05-30T05:12:40.957Z,7.40
2019-05-30T05:15:12.296Z,7.58
2019-05-30T05:17:42.443Z,8.15
2019-05-30T05:20:13.259Z,7.97
2019-05-30T05:22:42.982Z,8.63
2019-05-30T05:25:13.313Z,8.00
2019-05-30T05:27:43.377Z,8.23
2019-05-30T05:30:18.670Z,8.15
2019-05-30T05:36:09.015Z,8.45
2019-05-30T05:38:35.882Z,8.03
2019-05-30T05:41:05.728Z,7.97
2019-05-30T05:43:35.736Z,8.30
2019-05-30T05:46:08.436Z,8.38
2019-05-30T05:48:53.599Z,8.98
2019-05-30T05:51:24.702Z,8.33
2019-05-30T05:54:07.431Z,8.63
2019-05-30T05:56:47.433Z,8.65
2019-05-30T05:59:23.071Z,9.13
2019-05-30T06:01:53.298Z,8.80
2019-05-30T06:08:07.572Z,8.83
2019-05-30T06:10:38.875Z,8.30
2019-05-30T06:13:13.012Z,8.25
2019-05-30T06:15:49.324Z,8.25
2019-05-30T06:18:20.046Z,8.63
2019-05-30T06:24:15.087Z,6.78
2019-05-30T06:26:46.837Z,7.10
2019-05-30T06:29:20.109Z,6.90
2019-05-30T06:38:42.936Z,6.47
2019-05-30T06:44:37.191Z,6.00
2019-05-30T06:47:36.983Z,5.55
2019-05-30T06:50:20.592Z,5.30
2019-05-30T06:53:01.675Z,5.10
2019-05-30T06:55:27.317Z,5.25
2019-05-30T06:57:57.338Z,5.20
2019-05-30T07:00:28.124Z,5.67
2019-05-30T07:02:58.168Z,4.95
2019-05-30T07:05:29.943Z,6.05
2019-05-30T07:08:05.336Z,5.53
2019-05-30T07:10:34.904Z,4.95
2019-05-30T07:13:04.533Z,5.42
2019-05-30T07:15:34.520Z,5.03
2019-05-30T07:18:04.127Z,5.45
2019-05-30T07:20:33.864Z,5.03
2019-05-30T07:23:05.514Z,5.45
2019-05-30T07:25:40.195Z,5.45
2019-05-30T07:28:10.500Z,5.53
2019-05-30T07:30:40.127Z,4.70
2019-05-30T07:33:09.855Z,5.03
2019-05-30T07:35:39.511Z,4.53
2019-05-30T07:38:09.235Z,4.30
2019-05-30T07:40:40.135Z,4.80
2019-05-30T07:43:09.812Z,4.30
2019-05-30T07:45:41.191Z,4.80
2019-05-30T07:48:10.912Z,4.62
2019-05-30T07:50:40.577Z,3.92
2019-05-30T07:53:37.229Z,4.03
2019-05-30T07:56:30.946Z,4.22
2019-05-30T07:59:03.906Z,3.25
2019-05-30T08:01:34.663Z,3.22
2019-05-30T08:04:04.531Z,3.60
2019-05-30T08:06:34.225Z,4.22
2019-05-30T08:09:05.412Z,3.85
2019-05-30T08:11:35.136Z,4.33
2019-05-30T08:14:04.984Z,3.72
2019-05-30T08:16:35.506Z,4.00
2019-05-30T08:19:05.688Z,4.30
2019-05-30T08:21:38.289Z,3.85
2019-05-30T08:24:13.170Z,3.55
2019-05-30T08:26:44.360Z,4.40
2019-05-30T08:29:16.994Z,3.67
2019-05-30T08:32:08.979Z,3.35
2019-05-30T08:35:10.780Z,3.15
2019-05-30T08:38:09.982Z,3.75
2019-05-30T08:47:34.094Z,3.60
2019-05-30T08:50:30.225Z,4.10
2019-05-30T08:53:18.360Z,3.90
2019-05-30T08:55:55.739Z,4.00
2019-05-30T09:02:38.793Z,4.22
2019-05-30T09:06:02.613Z,4.05
2019-05-30T09:09:42.528Z,3.90
2019-05-30T09:12:34.228Z,4.30
2019-05-30T09:32:35.852Z,2.85
2019-05-30T09:35:11.745Z,2.98
2019-05-30T09:37:53.519Z,3.27
2019-05-30T09:41:29.278Z,3.33
2019-05-30T09:43:31.042Z,3.17
2019-05-30T09:46:22.236Z,4.05
2019-05-30T09:48:57.866Z,3.10
2019-05-30T09:51:42.494Z,3.85
2019-05-30T09:54:15.027Z,4.05
2019-05-30T09:56:59.556Z,3.62
2019-05-30T09:59:53.341Z,3.25
2019-05-30T10:02:22.967Z,3.45
2019-05-30T10:04:52.651Z,2.98
2019-05-30T10:07:26.083Z,3.98
2019-05-30T10:10:09.427Z,3.47
2019-05-30T10:12:39.298Z,2.80
2019-05-30T10:15:15.543Z,3.30
2019-05-30T10:17:46.271Z,3.45
2019-05-30T10:20:42.093Z,3.27
2019-05-30T10:23:12.056Z,3.90
2019-05-30T10:25:54.392Z,2.87
2019-05-30T10:28:29.808Z,2.85
2019-05-30T10:30:59.445Z,3.05
2019-05-30T10:33:32.552Z,3.05
2019-05-30T10:36:02.273Z,3.80
2019-05-30T10:38:33.627Z,3.10
2019-05-30T10:41:09.067Z,3.42
2019-05-30T10:43:38.888Z,2.90
2019-05-30T10:46:54.477Z,3.10
2019-05-30T10:49:49.960Z,2.75
2019-05-30T10:52:20.474Z,3.50
2019-05-30T10:55:22.053Z,3.12
2019-05-30T10:57:51.874Z,3.60
2019-05-30T11:00:26.690Z,3.15
2019-05-30T11:09:54.844Z,3.37
2019-05-30T11:12:31.048Z,3.60
2019-05-30T11:22:50.046Z,2.87
2019-05-30T11:32:59.387Z,3.35
2019-05-30T11:35:44.359Z,2.80
2019-05-30T11:42:23.879Z,2.80
2019-05-30T11:48:16.001Z,3.20
2019-05-30T11:51:04.087Z,3.00
2019-05-30T11:53:58.487Z,3.05
2019-05-30T11:56:35.030Z,2.83
2019-05-30T11:59:18.218Z,2.80
2019-05-30T12:01:48.047Z,2.80
2019-05-30T12:04:34.931Z,2.70
2019-05-30T12:07:13.718Z,2.65
2019-05-30T12:12:46.900Z,2.60
2019-05-30T12:15:18.890Z,2.60
2019-05-30T12:17:53.679Z,2.80
2019-05-30T12:20:31.719Z,2.62
2019-05-30T12:23:04.962Z,2.90
2019-05-30T12:25:45.566Z,2.65
2019-05-30T12:28:21.162Z,2.65
2019-05-30T12:30:56.858Z,2.60
2019-05-30T12:33:46.220Z,2.60
2019-05-30T12:36:26.105Z,2.30
2019-05-30T12:38:56.353Z,2.00
2019-05-30T12:41:31.499Z,1.95
2019-05-30T12:44:01.417Z,2.60
2019-05-30T12:46:31.362Z,2.47
2019-05-30T12:53:51.979Z,2.87
2019-05-30T12:59:28.758Z,2.20
2019-05-30T13:02:19.401Z,2.00
2019-05-30T13:11:26.702Z,2.65
2019-05-30T13:11:44.326Z,2.60
2019-05-30T13:34:01.066Z,2.45
2019-05-30T13:35:07.983Z,1.98
2019-05-30T13:38:05.344Z,2.20
2019-05-30T13:41:01.485Z,2.30
2019-05-30T13:43:46.055Z,2.12
2019-05-30T13:46:21.508Z,2.12
2019-05-30T13:48:54.363Z,1.80
2019-05-30T13:51:24.200Z,2.02
2019-05-30T13:53:55.176Z,1.92
2019-05-30T13:56:24.896Z,2.10
2019-05-30T13:58:59.881Z,1.90
2019-05-30T14:01:29.601Z,1.92
2019-05-30T14:04:02.946Z,2.20
2019-05-30T14:06:32.204Z,1.80
2019-05-30T14:09:08.680Z,1.80
2019-05-30T14:11:42.678Z,1.98
2019-05-30T14:14:12.277Z,2.20
2019-05-30T14:16:43.527Z,2.62
2019-05-30T14:19:28.393Z,2.30
2019-05-30T14:22:03.133Z,1.85
2019-05-30T14:24:33.335Z,1.80
2019-05-30T14:27:03.452Z,1.80
2019-05-30T14:29:33.200Z,1.85
2019-05-30T14:32:07.885Z,2.12
2019-05-30T14:34:37.755Z,1.70
2019-05-30T14:43:47.801Z,1.72
2019-05-30T14:46:17.484Z,2.30
2019-05-30T14:48:47.181Z,2.42
2019-05-30T14:51:17.749Z,1.70
2019-05-30T14:53:48.958Z,1.98
2019-05-30T14:56:18.511Z,1.87
2019-05-30T14:58:48.289Z,1.82
2019-05-30T15:01:17.919Z,1.40
2019-05-30T15:03:50.850Z,1.60
2019-05-30T15:06:20.582Z,1.90
2019-05-30T15:08:50.217Z,1.80
2019-05-30T15:11:19.961Z,2.10
2019-05-30T15:13:52.487Z,2.08
2019-05-30T15:16:22.205Z,1.60
2019-05-30T15:18:52.110Z,2.33
2019-05-30T15:21:21.840Z,2.33
2019-05-30T15:23:53.100Z,2.17
2019-05-30T15:26:24.100Z,1.50
2019-05-30T15:28:54.991Z,1.60
2019-05-30T15:31:33.931Z,1.80
2019-05-30T15:34:24.448Z,1.70
2019-05-30T15:37:09.114Z,1.60
2019-05-30T15:42:30.517Z,1.30
2019-05-30T15:45:08.057Z,1.50
2019-05-30T15:47:46.356Z,1.50
2019-05-30T15:50:17.610Z,1.50
2019-05-30T15:52:48.513Z,1.80
2019-05-30T15:55:31.577Z,2.10
2019-05-30T15:58:09.388Z,1.75
2019-05-30T16:00:38.485Z,1.40
2019-05-30T16:03:08.121Z,1.45
2019-05-30T16:05:37.793Z,1.37
2019-05-30T16:08:08.671Z,1.30
2019-05-30T16:10:38.331Z,1.50
2019-05-30T16:13:08.369Z,1.70
2019-05-30T16:15:38.017Z,1.50
2019-05-30T16:18:08.659Z,1.50
2019-05-30T16:20:39.884Z,1.30
2019-05-30T16:23:41.501Z,0.95
2019-05-30T16:36:03.828Z,1.30
2019-05-30T16:38:33.470Z,1.40
2019-05-30T16:41:03.075Z,1.10
2019-05-30T16:43:32.798Z,1.10
2019-05-30T16:46:02.384Z,1.10
2019-05-30T16:48:32.127Z,1.30
2019-05-30T16:51:01.797Z,1.22
2019-05-30T16:53:31.402Z,1.00
2019-05-30T16:56:01.009Z,1.27
2019-05-30T16:58:30.649Z,1.30
2019-05-30T17:01:01.160Z,1.25
2019-05-30T17:06:01.021Z,1.05
2019-05-30T17:08:30.634Z,1.00
2019-05-30T17:11:00.324Z,0.90
2019-05-30T17:13:31.349Z,0.85
2019-05-30T17:16:01.218Z,1.00
2019-05-30T17:18:30.797Z,1.05
2019-05-30T17:21:00.406Z,0.98
2019-05-30T17:23:30.025Z,0.75
2019-05-30T17:25:59.741Z,1.07
2019-05-30T17:28:29.364Z,1.10
2019-05-30T17:30:58.940Z,1.40
2019-05-30T17:33:28.560Z,1.17
2019-05-30T17:35:58.184Z,1.30
2019-05-30T17:38:28.771Z,1.17
2019-05-30T17:40:58.444Z,1.40
2019-05-30T17:43:29.186Z,0.90
2019-05-30T17:45:59.153Z,1.35
2019-05-30T17:48:29.737Z,1.12
2019-05-30T17:50:59.757Z,1.20
2019-05-30T17:53:30.086Z,1.30
2019-05-30T17:55:59.855Z,1.40
2019-05-30T17:58:30.196Z,1.15
2019-05-30T18:01:00.040Z,1.27
2019-05-30T18:03:30.735Z,1.27
2019-05-30T18:06:00.401Z,1.20
2019-05-30T18:08:31.239Z,1.30
2019-05-30T18:11:01.379Z,1.07
2019-05-30T18:13:31.298Z,1.20
2019-05-30T18:16:02.578Z,1.15
2019-05-30T18:18:32.181Z,1.00
2019-05-30T18:21:01.863Z,1.10
2019-05-30T18:23:31.782Z,1.10
2019-05-30T18:26:01.587Z,1.40
2019-05-30T18:28:32.025Z,1.40
2019-05-30T18:31:01.799Z,0.93
2019-05-30T18:33:32.566Z,1.10
2019-05-30T18:36:02.411Z,1.10
2019-05-30T18:38:32.679Z,1.35
2019-05-30T18:41:11.275Z,1.30
2019-05-30T18:43:33.795Z,1.20
2019-05-30T18:46:03.365Z,1.10
2019-05-30T18:48:33.405Z,0.88
2019-05-30T18:51:03.077Z,1.00
2019-05-30T18:53:32.788Z,1.12
2019-05-30T18:56:02.417Z,1.37
2019-05-30T18:58:33.219Z,0.80
2019-05-30T19:01:02.940Z,1.10
2019-05-30T19:03:33.385Z,1.30
2019-05-30T19:06:03.373Z,1.20
2019-05-30T19:08:34.215Z,1.30
2019-05-30T19:11:04.191Z,1.40
2019-05-30T19:13:33.721Z,1.20
2019-05-30T19:16:03.361Z,0.90
2019-05-30T19:18:33.648Z,1.00
2019-05-30T19:21:03.561Z,1.10
2019-05-30T19:23:34.185Z,1.22
2019-05-30T19:26:03.938Z,1.30
2019-05-30T19:28:34.557Z,1.22
2019-05-30T19:31:07.444Z,1.83
2019-05-30T19:33:37.224Z,1.30
2019-05-30T19:36:06.923Z,1.40
2019-05-30T19:38:37.624Z,1.80
2019-05-30T19:41:07.548Z,1.32
2019-05-30T19:43:38.063Z,2.20
2019-05-30T19:46:07.834Z,1.80
2019-05-30T19:48:38.460Z,1.77
2019-05-30T19:51:08.447Z,2.17
2019-05-30T19:53:39.157Z,1.55
2019-05-30T19:56:08.933Z,1.95
2019-05-30T19:58:39.779Z,1.80
2019-05-30T20:01:09.493Z,1.15
2019-05-30T20:03:45.153Z,1.67
2019-05-30T20:06:11.631Z,1.85
2019-05-30T20:08:51.331Z,1.95
2019-05-30T20:11:12.562Z,1.60
2019-05-30T20:13:42.181Z,1.50
2019-05-30T20:16:11.832Z,1.80
2019-05-30T20:18:41.795Z,1.62
2019-05-30T20:21:11.767Z,1.70
2019-05-30T20:23:52.723Z,1.57
2019-05-30T20:26:12.655Z,1.50
2019-05-30T20:28:42.961Z,2.00
2019-05-30T20:31:12.934Z,2.47
2019-05-30T20:33:42.706Z,2.10
2019-05-30T20:36:12.320Z,2.52
2019-05-30T20:38:42.904Z,2.20
2019-05-30T20:43:43.518Z,2.40
2019-05-30T20:46:22.743Z,2.67
2019-05-30T20:48:45.070Z,2.40
2019-05-30T20:51:21.214Z,1.90
2019-05-30T20:53:48.027Z,2.25
2019-05-30T20:56:17.678Z,2.55
2019-05-30T20:58:47.430Z,2.50
2019-05-30T21:01:16.952Z,2.45
2019-05-30T21:03:46.558Z,2.83
2019-05-30T21:06:16.528Z,3.10
2019-05-30T21:08:47.987Z,2.90
2019-05-30T21:11:18.014Z,2.58
2019-05-30T21:13:49.189Z,2.58
2019-05-30T21:16:21.781Z,2.50
2019-05-30T21:18:53.334Z,2.87
2019-05-30T21:21:22.920Z,2.70
2019-05-30T21:23:52.617Z,2.60
2019-05-30T21:26:22.212Z,2.83
2019-05-30T21:28:51.873Z,3.10
2019-05-30T21:31:21.491Z,2.77
2019-05-30T21:33:51.340Z,2.58
2019-05-30T21:36:21.321Z,2.77
2019-05-30T21:38:51.082Z,2.50
2019-05-30T21:41:20.664Z,2.72
2019-05-30T21:43:50.333Z,3.15
2019-05-30T21:46:20.078Z,2.95
2019-05-30T21:48:49.721Z,3.37
2019-05-30T21:51:19.339Z,2.42
2019-05-30T21:53:49.730Z,3.00
2019-05-30T21:56:19.534Z,2.65
2019-05-30T21:58:50.372Z,3.08
2019-05-30T22:01:20.774Z,3.57
2019-05-30T22:03:51.594Z,3.12
2019-05-30T22:06:21.231Z,3.35
2019-05-30T22:08:51.525Z,3.22
2019-05-30T22:11:21.722Z,3.15
2019-05-30T22:13:52.038Z,3.33
2019-05-30T22:16:21.818Z,3.17
2019-05-30T22:18:52.262Z,2.67
2019-05-30T22:21:23.383Z,3.27
2019-05-30T22:23:53.171Z,2.80
2019-05-30T22:26:22.829Z,2.50
2019-05-30T22:28:52.767Z,2.50
2019-05-30T22:31:22.770Z,2.62
2019-05-30T22:33:53.287Z,3.17
2019-05-30T22:36:23.078Z,3.00
2019-05-30T22:38:53.129Z,2.22
2019-05-30T22:41:22.974Z,2.92
2019-05-30T22:43:52.901Z,2.60
2019-05-30T22:46:22.761Z,2.83
2019-05-30T22:48:52.910Z,2.60
2019-05-30T22:51:27.424Z,2.77
2019-05-30T22:53:55.585Z,2.50
2019-05-30T22:56:25.151Z,3.25
2019-05-30T22:58:55.792Z,3.27
2019-05-30T23:01:26.549Z,2.98
2019-05-30T23:03:57.251Z,3.50
2019-05-30T23:06:27.260Z,3.12
2019-05-30T23:08:56.996Z,2.70
2019-05-30T23:11:26.896Z,2.92
2019-05-30T23:13:56.406Z,3.65
2019-05-30T23:16:26.035Z,2.83
2019-05-30T23:18:56.748Z,3.70
2019-05-30T23:21:26.684Z,3.92
2019-05-30T23:23:57.303Z,3.55
2019-05-30T23:26:27.241Z,3.77
2019-05-30T23:28:57.983Z,3.50
2019-05-30T23:31:27.720Z,3.00
2019-05-30T23:33:58.645Z,3.20
2019-05-30T23:36:31.610Z,3.52
2019-05-30T23:39:01.254Z,3.55
2019-05-30T23:41:32.084Z,3.27
2019-05-30T23:44:10.752Z,3.37
2019-05-30T23:46:33.045Z,2.70
2019-05-30T23:49:03.952Z,3.15
2019-05-30T23:51:33.572Z,3.00
2019-05-30T23:54:03.235Z,3.20
2019-05-30T23:56:32.873Z,3.10
2019-05-30T23:59:02.559Z,3.37
